Time;durP1;ratioP1;P1;durP2;ratioP2;P2;SDS_P1;SDS_P2;PMS_P1;PMS_P2;Temp;Humidity;BMP_temperature;BMP_pressure;BME280_temperature;BME280_humidity;BME280_pressure;Samples;Min_cycle;Max_cycle;Signal;HPM_P1;HPM_P2
2023/09/14 00:00:04;;;;;;;10.10;6.40;;;;;;;16.85;88.49;100765.23;111033;1209;97613;-64
2023/09/14 00:02:29;;;;;;;8.90;6.30;;;;;;;16.86;88.68;100756.52;110963;1210;97549;-64
2023/09/14 00:04:54;;;;;;;9.00;6.30;;;;;;;16.87;88.80;100757.19;110789;1212;140179;-64
2023/09/14 00:07:19;;;;;;;7.10;5.40;;;;;;;16.88;88.63;100755.50;110991;1210;97552;-64
2023/09/14 00:09:45;;;;;;;9.30;5.60;;;;;;;16.90;88.76;100756.08;110798;1212;138783;-64
2023/09/14 00:12:10;;;;;;;9.80;5.90;;;;;;;16.91;88.91;100758.17;110974;1210;97805;-65
2023/09/14 00:14:35;;;;;;;8.90;5.80;;;;;;;16.92;89.18;100757.95;110872;1212;97674;-64
2023/09/14 00:17:01;;;;;;;9.90;5.20;;;;;;;16.93;89.04;100758.38;110889;1212;138807;-65
2023/09/14 00:19:26;;;;;;;9.20;5.20;;;;;;;16.93;88.92;100761.80;110989;1212;97562;-65
2023/09/14 00:21:52;;;;;;;7.20;4.90;;;;;;;16.95;88.99;100766.72;110780;1222;138445;-65
2023/09/14 00:24:18;;;;;;;12.40;5.40;;;;;;;16.94;89.23;100768.23;110899;1209;98597;-65
2023/09/14 00:26:43;;;;;;;5.40;4.50;;;;;;;16.95;89.42;100766.72;110921;1209;97700;-64
2023/09/14 00:29:10;;;;;;;9.40;5.30;;;;;;;16.98;89.29;100771.23;110832;1212;138336;-65
2023/09/14 00:31:38;;;;;;;7.40;5.20;;;;;;;16.99;89.49;100778.19;111075;1209;97600;-64
2023/09/14 00:34:03;;;;;;;7.00;4.30;;;;;;;17.01;89.73;100781.32;110775;1212;138356;-65
2023/09/14 00:36:30;;;;;;;8.50;4.30;;;;;;;17.03;89.65;100785.33;110794;1210;98061;-64
2023/09/14 00:38:55;;;;;;;8.20;4.80;;;;;;;17.06;89.45;100781.90;110985;1212;97782;-65
2023/09/14 00:41:22;;;;;;;9.50;4.80;;;;;;;17.09;89.42;100786.92;110848;1212;138249;-64
2023/09/14 00:43:47;;;;;;;8.90;4.20;;;;;;;17.10;89.23;100787.92;110916;1209;97635;-63
2023/09/14 00:46:13;;;;;;;6.70;4.20;;;;;;;17.11;89.22;100790.55;110868;1212;140379;-63
2023/09/14 00:48:39;;;;;;;10.30;4.10;;;;;;;17.12;89.17;100789.41;110916;1212;108436;-63
2023/09/14 00:51:06;;;;;;;10.00;4.00;;;;;;;17.12;89.17;100791.72;110835;1212;140616;-63
2023/09/14 00:53:31;;;;;;;8.80;3.60;;;;;;;17.13;89.13;100789.15;110927;1212;97603;-65
2023/09/14 00:55:58;;;;;;;6.70;4.10;;;;;;;17.14;89.19;100789.06;110922;1212;98291;-63
2023/09/14 00:58:23;;;;;;;5.50;3.60;;;;;;;17.13;89.12;100788.04;110872;1212;139025;-63
2023/09/14 01:00:50;;;;;;;9.20;3.60;;;;;;;17.10;89.20;100793.89;110930;1209;97623;-63
2023/09/14 01:03:16;;;;;;;7.50;3.60;;;;;;;17.08;89.24;100800.18;110899;1211;139260;-63
2023/09/14 01:05:43;;;;;;;6.80;4.10;;;;;;;17.05;89.40;100802.71;110806;1209;97674;-63
2023/09/14 01:08:10;;;;;;;5.60;3.10;;;;;;;17.01;89.53;100805.69;110860;1209;99761;-63
2023/09/14 01:10:35;;;;;;;4.50;3.00;;;;;;;17.00;89.58;100806.85;110709;1212;139552;-64
2023/09/14 01:13:01;;;;;;;4.60;3.00;;;;;;;16.99;89.34;100811.23;110960;1209;97593;-64
2023/09/14 01:15:36;;;;;;;10.10;3.20;;;;;;;16.98;89.45;100808.41;110759;1222;140316;-64
2023/09/14 01:18:13;;;;;;;6.90;3.00;;;;;;;16.97;89.47;100813.32;110925;1212;99341;-64
2023/09/14 01:21:00;;;;;;;5.10;2.90;;;;;;;16.95;89.72;100812.95;110907;1209;98272;-64
2023/09/14 01:23:34;;;;;;;8.20;3.10;;;;;;;16.92;89.96;100816.75;110846;1212;96447;-64
2023/09/14 01:26:01;;;;;;;4.30;2.70;;;;;;;16.89;90.23;100823.84;110890;1208;104054;-64
2023/09/14 01:28:28;;;;;;;5.40;3.20;;;;;;;16.86;89.98;100824.91;110797;1212;139748;-64
2023/09/14 01:30:54;;;;;;;3.00;2.20;;;;;;;16.86;89.99;100830.52;110959;1222;99440;-65
2023/09/14 01:33:24;;;;;;;6.20;2.80;;;;;;;16.84;89.90;100829.00;110867;1207;139122;-64
2023/09/14 01:36:03;;;;;;;2.50;2.20;;;;;;;16.82;89.94;100832.19;110998;1210;102968;-64
2023/09/14 01:38:30;;;;;;;4.40;2.50;;;;;;;16.79;90.08;100836.92;110953;1212;97688;-65
2023/09/14 01:40:56;;;;;;;4.80;2.20;;;;;;;16.74;90.01;100835.48;110869;1212;138278;-65
2023/09/14 01:43:22;;;;;;;3.60;1.90;;;;;;;16.70;90.11;100841.19;110853;1212;97674;-64
2023/09/14 01:45:48;;;;;;;2.60;1.80;;;;;;;16.67;90.05;100844.07;110842;1212;138958;-64
2023/09/14 01:48:15;;;;;;;2.20;1.60;;;;;;;16.65;90.04;100844.20;110910;1209;97626;-65
2023/09/14 01:50:41;;;;;;;3.70;2.20;;;;;;;16.63;90.06;100846.64;111093;1212;108155;-64
2023/09/14 01:53:07;;;;;;;4.00;2.30;;;;;;;16.61;89.88;100850.73;110763;1212;138734;-65
2023/09/14 01:55:32;;;;;;;5.90;1.90;;;;;;;16.62;89.82;100851.59;110918;1212;97762;-64
2023/09/14 01:57:57;;;;;;;4.10;2.20;;;;;;;16.60;89.61;100853.52;110760;1215;140100;-64
2023/09/14 02:00:25;;;;;;;4.50;1.50;;;;;;;16.56;89.38;100857.88;110999;1212;97715;-64
2023/09/14 02:02:52;;;;;;;4.10;1.80;;;;;;;16.54;89.30;100859.25;110917;1212;97712;-65
2023/09/14 02:05:17;;;;;;;2.00;1.60;;;;;;;16.52;89.29;100865.71;110874;1209;138894;-65
2023/09/14 02:07:43;;;;;;;4.10;1.90;;;;;;;16.47;89.19;100871.27;110947;1212;98021;-64
2023/09/14 02:10:08;;;;;;;1.90;1.20;;;;;;;16.42;89.15;100873.20;110808;1212;138485;-64
2023/09/14 02:12:34;;;;;;;2.80;1.40;;;;;;;16.39;89.05;100874.72;110966;1213;97838;-65
2023/09/14 02:14:59;;;;;;;3.30;1.10;;;;;;;16.34;88.98;100869.42;110896;1215;97624;-65
2023/09/14 02:17:25;;;;;;;1.30;0.90;;;;;;;16.30;89.01;100872.39;110800;1212;140878;-64
2023/09/14 02:19:52;;;;;;;1.50;1.30;;;;;;;16.24;88.64;100878.88;110924;1212;97684;-64
2023/09/14 02:22:18;;;;;;;2.60;1.20;;;;;;;16.22;88.37;100877.95;110817;1209;138351;-65
2023/09/14 02:24:43;;;;;;;1.90;1.00;;;;;;;16.20;88.08;100873.52;111005;1212;97681;-65
2023/09/14 02:27:08;;;;;;;3.30;1.30;;;;;;;16.19;88.11;100872.33;110832;1209;138800;-64
2023/09/14 02:29:34;;;;;;;2.40;1.20;;;;;;;16.19;87.76;100876.00;111050;1209;96450;-65
2023/09/14 02:31:59;;;;;;;2.30;1.30;;;;;;;16.17;87.38;100879.02;110946;1212;97600;-65
2023/09/14 02:34:24;;;;;;;2.30;1.20;;;;;;;16.16;87.28;100878.12;110835;1208;139263;-65
2023/09/14 02:36:50;;;;;;;3.60;1.20;;;;;;;16.17;87.06;100882.02;111055;1212;97671;-64
2023/09/14 02:39:15;;;;;;;5.70;1.60;;;;;;;16.17;86.83;100882.42;110862;1212;138596;-65
2023/09/14 02:41:40;;;;;;;1.40;0.90;;;;;;;16.15;86.64;100879.13;111020;1209;97687;-65
2023/09/14 02:44:05;;;;;;;2.60;1.20;;;;;;;16.11;86.43;100882.79;110968;1209;97645;-65
2023/09/14 02:46:31;;;;;;;5.40;1.60;;;;;;;16.09;86.35;100889.90;110765;1208;138310;-64
2023/09/14 02:48:56;;;;;;;6.10;1.50;;;;;;;16.07;86.24;100895.13;110796;1212;98294;-64
2023/09/14 02:51:21;;;;;;;4.20;2.00;;;;;;;16.00;86.07;100898.98;110868;1209;139437;-65
2023/09/14 02:53:47;;;;;;;5.80;1.40;;;;;;;15.90;86.16;100899.41;110914;1210;97713;-64
2023/09/14 02:56:12;;;;;;;7.70;1.90;;;;;;;15.81;86.15;100901.02;111079;1211;98239;-64
2023/09/14 02:58:38;;;;;;;4.80;2.10;;;;;;;15.77;86.09;100902.04;110861;1209;138424;-64
2023/09/14 03:01:08;;;;;;;3.60;1.70;;;;;;;15.70;86.13;100905.48;110903;1212;97697;-64
2023/09/14 03:03:35;;;;;;;2.10;1.50;;;;;;;15.62;86.31;100907.97;110775;1209;140617;-64
2023/09/14 03:06:00;;;;;;;4.40;1.80;;;;;;;15.55;86.28;100917.43;110979;1210;99147;-64
2023/09/14 03:08:25;;;;;;;5.60;2.10;;;;;;;15.47;86.43;100917.89;110906;1212;98320;-64
2023/09/14 03:10:50;;;;;;;5.10;1.70;;;;;;;15.41;86.44;100915.38;110737;1212;139890;-64
2023/09/14 03:13:16;;;;;;;3.40;2.10;;;;;;;15.33;86.68;100922.83;110943;1212;97685;-63
2023/09/14 03:15:41;;;;;;;6.40;2.70;;;;;;;15.27;86.69;100925.01;110911;1209;138764;-64
2023/09/14 03:18:06;;;;;;;5.20;1.80;;;;;;;15.24;86.73;100924.80;110897;1209;99086;-64
2023/09/14 03:20:31;;;;;;;7.20;2.40;;;;;;;15.21;86.81;100921.37;110957;1212;97684;-64
2023/09/14 03:22:58;;;;;;;5.40;1.70;;;;;;;15.18;86.73;100921.91;110728;1208;139063;-64
2023/09/14 03:25:23;;;;;;;4.90;1.70;;;;;;;15.16;86.80;100926.19;110892;1212;98098;-64
2023/09/14 03:27:49;;;;;;;6.80;2.10;;;;;;;15.12;86.87;100926.05;110902;1209;138671;-64
2023/09/14 03:30:14;;;;;;;4.70;2.40;;;;;;;15.09;86.83;100926.23;110931;1212;97646;-64
2023/09/14 03:32:39;;;;;;;4.50;2.00;;;;;;;15.03;86.96;100926.08;110990;1209;97761;-64
2023/09/14 03:35:05;;;;;;;9.50;2.00;;;;;;;14.98;87.11;100932.29;110869;1212;139650;-64
2023/09/14 03:37:30;;;;;;;8.00;2.10;;;;;;;14.94;87.17;100935.92;110806;1208;97635;-64
2023/09/14 03:39:55;;;;;;;5.90;2.30;;;;;;;14.92;87.24;100937.10;110846;1209;140831;-64
2023/09/14 03:42:20;;;;;;;5.20;2.40;;;;;;;14.91;87.25;100942.56;110930;1209;98053;-64
2023/09/14 03:44:46;;;;;;;7.60;2.60;;;;;;;14.90;87.23;100944.05;110925;1212;97637;-64
2023/09/14 03:47:11;;;;;;;5.70;2.70;;;;;;;14.89;87.30;100948.09;110740;1208;138587;-64
2023/09/14 03:49:36;;;;;;;6.30;2.40;;;;;;;14.87;87.26;100945.88;110888;1212;97801;-64
2023/09/14 03:52:03;;;;;;;7.10;2.70;;;;;;;14.82;87.32;100949.17;110760;1209;138556;-64
2023/09/14 03:54:28;;;;;;;8.00;2.80;;;;;;;14.79;87.32;100953.50;111038;1222;97665;-64
2023/09/14 03:56:54;;;;;;;7.30;3.10;;;;;;;14.75;87.43;100958.95;110995;1208;98559;-63
2023/09/14 03:59:20;;;;;;;5.10;2.50;;;;;;;14.72;87.54;100965.06;110690;1212;139709;-64
2023/09/14 04:01:45;;;;;;;4.40;2.90;;;;;;;14.70;87.61;100967.16;110934;1212;97568;-64
2023/09/14 04:04:10;;;;;;;10.10;3.30;;;;;;;14.65;87.62;100968.66;110848;1212;138866;-64
2023/09/14 04:06:35;;;;;;;8.60;3.00;;;;;;;14.62;87.58;100977.65;110925;1210;97680;-64
2023/09/14 04:09:00;;;;;;;11.10;3.60;;;;;;;14.58;87.75;100979.64;110952;1209;97840;-65
2023/09/14 04:11:26;;;;;;;12.50;3.80;;;;;;;14.55;87.89;100983.40;110784;1212;138839;-64
2023/09/14 04:13:51;;;;;;;4.50;3.30;;;;;;;14.52;87.95;100986.09;110966;1208;97736;-64
2023/09/14 04:16:16;;;;;;;8.30;3.30;;;;;;;14.49;88.18;100987.86;110852;1212;138890;-64
2023/09/14 04:18:42;;;;;;;10.40;3.80;;;;;;;14.44;88.32;100989.59;110919;1209;97696;-64
2023/09/14 04:21:07;;;;;;;6.30;3.60;;;;;;;14.43;88.30;100988.23;110936;1208;138785;-64
2023/09/14 04:23:32;;;;;;;11.30;4.50;;;;;;;14.41;88.47;100990.83;110905;1211;97658;-64
2023/09/14 04:26:00;;;;;;;15.10;5.20;;;;;;;14.41;88.63;100992.60;110927;1209;97734;-64
2023/09/14 04:28:25;;;;;;;12.10;4.70;;;;;;;14.43;88.63;100997.40;110791;1212;138483;-64
2023/09/14 04:30:58;;;;;;;10.20;4.10;;;;;;;14.45;88.71;100995.86;110851;1214;97595;-64
2023/09/14 04:33:24;;;;;;;9.70;4.20;;;;;;;14.47;88.56;100999.36;110903;1212;139723;-64
2023/09/14 04:35:58;;;;;;;10.40;4.60;;;;;;;14.45;88.60;100996.39;111104;1209;98059;-64
2023/09/14 04:38:24;;;;;;;10.20;5.50;;;;;;;14.47;88.75;100996.28;110958;1212;100106;-64
2023/09/14 04:40:49;;;;;;;6.20;4.20;;;;;;;14.46;88.77;101002.59;110856;1212;140217;-64
2023/09/14 04:43:16;;;;;;;58.20;31.40;;;;;;;14.47;88.88;101007.04;110963;1211;97678;-64
2023/09/14 04:45:41;;;;;;;13.20;6.60;;;;;;;14.47;89.18;101006.00;110912;1212;139549;-64
2023/09/14 04:48:07;;;;;;;15.50;6.00;;;;;;;14.45;89.55;101012.36;110963;1209;97696;-65
2023/09/14 04:50:33;;;;;;;11.90;6.40;;;;;;;14.45;89.73;101010.59;110997;1212;97681;-64
2023/09/14 04:52:58;;;;;;;14.50;6.20;;;;;;;14.47;89.79;101007.40;110837;1208;138816;-64
2023/09/14 04:55:24;;;;;;;11.60;5.90;;;;;;;14.51;89.86;101006.85;110978;1209;97668;-64
2023/09/14 04:57:49;;;;;;;11.70;6.70;;;;;;;14.54;89.91;101011.19;110802;1211;138939;-65
2023/09/14 05:00:15;;;;;;;11.80;5.60;;;;;;;14.56;89.85;101013.59;110844;1209;97598;-64
2023/09/14 05:02:40;;;;;;;16.90;6.60;;;;;;;14.57;89.73;101014.77;110839;1212;97803;-65
2023/09/14 05:05:08;;;;;;;13.00;6.50;;;;;;;14.57;90.00;101014.06;110805;1207;140618;-65
2023/09/14 05:07:33;;;;;;;17.20;7.60;;;;;;;14.54;90.34;101025.75;110825;1212;97671;-65
2023/09/14 05:09:59;;;;;;;11.50;6.80;;;;;;;14.51;90.64;101026.79;110672;1209;139234;-66
2023/09/14 05:12:25;;;;;;;22.40;7.50;;;;;;;14.51;90.73;101029.50;111444;1212;96201;-64
2023/09/14 05:14:50;;;;;;;14.20;7.20;;;;;;;14.53;90.66;101035.16;110777;1211;97815;-65
2023/09/14 05:17:15;;;;;;;15.40;7.50;;;;;;;14.54;90.66;101038.35;110747;1212;139065;-64
2023/09/14 05:19:42;;;;;;;11.30;6.70;;;;;;;14.52;90.58;101040.59;110763;1211;99510;-66
2023/09/14 05:22:08;;;;;;;29.90;7.60;;;;;;;14.51;90.67;101044.06;110715;1209;138598;-65
2023/09/14 05:24:34;;;;;;;11.20;7.40;;;;;;;14.53;90.71;101047.22;110854;1209;97582;-66
2023/09/14 05:27:01;;;;;;;11.50;6.30;;;;;;;14.53;90.64;101052.92;110826;1212;97679;-66
2023/09/14 05:29:26;;;;;;;16.30;7.60;;;;;;;14.52;90.60;101051.20;110978;1209;138280;-66
2023/09/14 05:31:52;;;;;;;11.90;7.30;;;;;;;14.52;90.66;101053.73;111027;1206;97578;-66
2023/09/14 05:34:17;;;;;;;15.40;6.90;;;;;;;14.51;90.67;101055.92;110986;1209;138540;-65
2023/09/14 05:36:43;;;;;;;12.00;7.40;;;;;;;14.51;90.76;101060.42;111040;1209;97685;-65
2023/09/14 05:39:08;;;;;;;16.30;7.50;;;;;;;14.52;90.79;101060.73;111030;1206;140755;-65
2023/09/14 05:41:34;;;;;;;41.10;8.50;;;;;;;14.57;90.83;101057.41;110957;1209;100438;-65
2023/09/14 05:44:00;;;;;;;15.90;7.30;;;;;;;14.62;90.79;101054.29;111043;1209;97674;-66
2023/09/14 05:46:26;;;;;;;15.50;7.40;;;;;;;14.61;91.02;101053.95;110939;1206;138564;-65
2023/09/14 05:48:51;;;;;;;11.30;6.50;;;;;;;14.59;91.11;101058.75;111052;1209;97642;-66
2023/09/14 05:51:16;;;;;;;15.20;7.30;;;;;;;14.61;91.14;101058.65;110910;1206;138945;-65
2023/09/14 05:53:42;;;;;;;14.70;7.10;;;;;;;14.65;91.13;101058.98;111075;1215;97687;-66
2023/09/14 05:56:07;;;;;;;12.10;7.50;;;;;;;14.72;91.20;101063.26;111105;1209;97549;-65
2023/09/14 05:58:32;;;;;;;17.40;7.20;;;;;;;14.77;91.00;101068.20;110845;1205;138807;-65
2023/09/14 06:01:00;;;;;;;11.70;6.90;;;;;;;14.80;90.96;101075.61;110859;1209;98021;-65
2023/09/14 06:03:25;;;;;;;19.70;7.10;;;;;;;14.80;90.80;101077.75;110879;1206;141381;-67
2023/09/14 06:05:51;;;;;;;14.10;6.90;;;;;;;14.80;90.85;101080.83;111028;1209;97683;-65
2023/09/14 06:08:16;;;;;;;9.10;5.70;;;;;;;14.84;90.85;101078.28;111136;1209;98011;-65
2023/09/14 06:10:42;;;;;;;9.20;5.70;;;;;;;14.83;90.64;101081.52;110906;1206;139009;-65
2023/09/14 06:13:07;;;;;;;17.80;7.00;;;;;;;14.83;90.71;101082.81;111068;1206;97599;-65
2023/09/14 06:15:32;;;;;;;13.10;6.50;;;;;;;14.81;90.54;101082.71;110815;1209;138945;-65
2023/09/14 06:17:58;;;;;;;11.20;5.90;;;;;;;14.86;90.72;101080.31;111077;1209;97573;-65
2023/09/14 06:20:23;;;;;;;11.90;6.50;;;;;;;14.89;90.59;101087.67;110892;1212;99418;-65
2023/09/14 06:22:49;;;;;;;13.90;7.10;;;;;;;14.86;90.52;101088.02;110930;1209;140165;-65
2023/09/14 06:25:14;;;;;;;12.80;6.90;;;;;;;14.92;90.59;101096.53;111071;1206;97696;-65
2023/09/14 06:27:39;;;;;;;17.50;6.70;;;;;;;14.99;90.51;101093.13;110850;1210;139174;-65
2023/09/14 06:30:06;;;;;;;12.30;6.30;;;;;;;15.03;90.40;101095.77;110998;1206;97654;-65
2023/09/14 06:32:32;;;;;;;10.00;6.40;;;;;;;14.97;90.36;101095.01;111080;1209;98017;-65
2023/09/14 06:34:57;;;;;;;9.00;6.20;;;;;;;15.03;90.57;101100.81;110911;1209;139718;-65
2023/09/14 06:37:22;;;;;;;15.50;6.40;;;;;;;15.04;90.48;101101.80;110979;1210;98227;-66
2023/09/14 06:39:48;;;;;;;14.50;6.20;;;;;;;14.98;90.39;101097.67;110998;1206;140809;-66
2023/09/14 06:42:13;;;;;;;12.20;6.80;;;;;;;14.98;90.54;101094.63;111025;1206;98074;-66
2023/09/14 06:44:38;;;;;;;14.70;7.10;;;;;;;15.01;90.62;101099.31;111072;1206;97678;-66
2023/09/14 06:47:03;;;;;;;8.40;6.20;;;;;;;15.04;90.56;101096.79;110912;1219;139027;-66
2023/09/14 06:49:29;;;;;;;9.40;6.50;;;;;;;15.11;90.79;101102.13;110890;1206;97763;-66
2023/09/14 06:51:54;;;;;;;12.40;6.70;;;;;;;15.27;90.76;101102.33;110474;1209;138627;-66
2023/09/14 06:54:20;;;;;;;11.70;6.20;;;;;;;15.36;90.51;101104.02;110560;1212;97549;-67
2023/09/14 06:56:45;;;;;;;8.30;5.60;;;;;;;15.41;90.43;101106.95;110730;1211;97623;-67
2023/09/14 06:59:10;;;;;;;10.10;5.80;;;;;;;15.42;90.26;101108.70;110454;1206;138385;-67
2023/09/14 07:01:37;;;;;;;11.40;6.40;;;;;;;15.51;90.25;101110.00;110575;1210;99066;-66
2023/09/14 07:04:02;;;;;;;13.90;6.50;;;;;;;15.62;90.22;101113.18;110589;1209;138543;-66
2023/09/14 07:06:27;;;;;;;15.20;5.50;;;;;;;15.72;90.05;101117.81;110869;1206;99013;-67
2023/09/14 07:08:53;;;;;;;14.00;6.30;;;;;;;15.81;89.87;101123.39;110971;1206;97658;-67
2023/09/14 07:11:18;;;;;;;12.50;6.40;;;;;;;15.84;89.72;101130.81;110722;1209;138671;-67
2023/09/14 07:13:44;;;;;;;7.50;6.00;;;;;;;15.85;89.52;101132.70;110922;1206;98714;-67
2023/09/14 07:16:09;;;;;;;11.50;6.20;;;;;;;15.88;89.39;101135.05;110772;1209;140204;-66
2023/09/14 07:18:34;;;;;;;11.10;5.90;;;;;;;15.90;89.13;101139.08;110876;1206;97994;-66
2023/09/14 07:21:02;;;;;;;11.80;6.20;;;;;;;15.91;89.07;101141.01;110924;1209;98502;-67
2023/09/14 07:23:28;;;;;;;10.90;6.00;;;;;;;15.92;88.92;101145.11;111182;1209;139343;-66
2023/09/14 07:25:53;;;;;;;12.80;5.60;;;;;;;15.91;88.70;101144.83;110932;1209;98436;-67
2023/09/14 07:28:20;;;;;;;12.50;7.10;;;;;;;15.98;88.89;101142.47;110987;1206;139225;-67
2023/09/14 07:30:50;;;;;;;13.20;5.50;;;;;;;16.03;88.59;101138.38;110933;1209;97747;-66
2023/09/14 07:33:16;;;;;;;16.60;5.50;;;;;;;16.08;88.40;101142.96;110790;1209;140900;-65
2023/09/14 07:35:41;;;;;;;8.80;5.50;;;;;;;16.07;88.36;101145.16;111107;1206;97274;-66
2023/09/14 07:38:15;;;;;;;12.00;5.20;;;;;;;16.07;88.12;101148.22;111089;1206;98039;-66
2023/09/14 07:40:41;;;;;;;10.20;5.10;;;;;;;16.02;87.78;101150.88;111083;1221;140021;-66
2023/09/14 07:43:07;;;;;;;8.70;5.30;;;;;;;15.97;87.78;101158.03;111162;1206;98020;-65
2023/09/14 07:45:35;;;;;;;12.30;5.30;;;;;;;15.95;87.59;101156.36;110784;1209;139657;-65
2023/09/14 07:48:05;;;;;;;8.80;4.80;;;;;;;16.01;87.75;101161.73;110848;1209;97668;-65
2023/09/14 07:50:34;;;;;;;7.10;4.70;;;;;;;16.08;87.64;101167.08;111005;1206;108386;-65
2023/09/14 07:52:59;;;;;;;7.90;4.80;;;;;;;16.13;87.44;101166.10;110874;1209;138654;-65
2023/09/14 07:55:24;;;;;;;6.40;4.20;;;;;;;16.22;87.53;101168.29;110928;1206;97588;-66
2023/09/14 07:57:50;;;;;;;11.50;4.80;;;;;;;16.35;87.36;101171.83;110913;1209;138443;-70
2023/09/14 08:00:15;;;;;;;8.80;4.90;;;;;;;16.37;86.88;101173.48;110909;1206;97626;-65
2023/09/14 08:02:40;;;;;;;10.00;5.00;;;;;;;16.46;87.01;101178.75;110826;1206;98308;-66
2023/09/14 08:05:06;;;;;;;16.70;5.40;;;;;;;16.50;86.63;101181.91;110712;1211;140455;-66
2023/09/14 08:07:32;;;;;;;11.00;5.50;;;;;;;16.46;86.17;101181.23;111609;1206;97584;-66
2023/09/14 08:09:58;;;;;;;14.70;5.90;;;;;;;16.39;86.07;101184.73;110896;1206;140729;-66
2023/09/14 08:12:24;;;;;;;8.30;4.90;;;;;;;16.43;86.13;101182.89;110930;1209;97690;-67
2023/09/14 08:14:49;;;;;;;11.80;5.20;;;;;;;16.51;86.00;101178.98;110984;1206;97574;-66
2023/09/14 08:17:14;;;;;;;13.20;6.00;;;;;;;16.62;85.92;101173.66;110867;1209;139660;-66
2023/09/14 08:19:39;;;;;;;11.70;5.60;;;;;;;16.72;85.68;101175.20;110986;1206;97645;-65
2023/09/14 08:22:05;;;;;;;10.90;5.80;;;;;;;16.80;85.48;101181.23;110975;1206;139230;-65
2023/09/14 08:24:30;;;;;;;10.50;5.40;;;;;;;16.84;85.30;101175.59;110903;1209;97716;-66
2023/09/14 08:26:55;;;;;;;13.40;5.90;;;;;;;16.86;85.17;101173.97;111016;1209;97534;-65
2023/09/14 08:29:21;;;;;;;9.00;5.90;;;;;;;16.87;84.86;101180.06;111285;1209;138511;-66
2023/09/14 08:31:50;;;;;;;9.70;5.30;;;;;;;16.80;84.65;101178.73;111142;1209;98004;-65
2023/09/14 08:34:15;;;;;;;13.00;6.70;;;;;;;16.75;84.49;101180.29;110868;1206;141253;-67
2023/09/14 08:36:41;;;;;;;15.10;5.60;;;;;;;16.77;84.53;101182.32;110930;1209;97760;-69
2023/09/14 08:39:06;;;;;;;12.60;5.50;;;;;;;16.81;84.53;101180.84;111085;1209;96879;-67
2023/09/14 08:41:36;;;;;;;9.00;4.50;;;;;;;16.87;84.45;101183.87;110812;1209;139409;-68
2023/09/14 08:44:06;;;;;;;11.30;5.20;;;;;;;16.85;83.92;101188.29;110967;1209;99165;-65
2023/09/14 08:46:32;;;;;;;10.10;5.50;;;;;;;16.79;83.83;101191.20;110648;1215;140246;-66
2023/09/14 08:48:59;;;;;;;14.30;5.40;;;;;;;16.84;83.78;101195.42;110802;1208;97663;-65
2023/09/14 08:51:28;;;;;;;8.40;4.60;;;;;;;16.83;83.34;101194.23;110673;1209;138833;-64
2023/09/14 08:53:55;;;;;;;12.40;5.20;;;;;;;16.83;83.37;101199.61;110816;1211;97723;-63
2023/09/14 08:56:22;;;;;;;6.40;4.30;;;;;;;16.90;83.50;101196.35;110832;1209;97568;-65
2023/09/14 08:58:48;;;;;;;15.50;5.40;;;;;;;17.00;83.14;101198.42;110846;1206;138417;-65
2023/09/14 09:01:17;;;;;;;11.60;5.50;;;;;;;17.02;82.60;101202.45;110914;1209;98245;-65
2023/09/14 09:03:42;;;;;;;8.50;5.20;;;;;;;17.05;82.83;101199.92;110772;1209;138833;-65
2023/09/14 09:06:07;;;;;;;14.40;5.20;;;;;;;17.07;82.72;101200.16;110873;1208;97748;-65
2023/09/14 09:08:33;;;;;;;14.20;6.00;;;;;;;17.06;82.68;101204.16;110736;1206;97633;-66
2023/09/14 09:11:00;;;;;;;11.80;5.20;;;;;;;17.06;82.64;101209.25;110715;1211;138972;-65
2023/09/14 09:13:33;;;;;;;7.90;4.70;;;;;;;17.09;82.51;101204.19;110767;1209;97629;-64
2023/09/14 09:15:59;;;;;;;14.10;5.30;;;;;;;17.17;82.85;101202.58;110955;1206;140229;-64
2023/09/14 09:18:25;;;;;;;6.30;4.20;;;;;;;17.29;82.59;101208.90;110665;1206;99115;-65
2023/09/14 09:20:50;;;;;;;9.50;4.10;;;;;;;17.35;82.25;101207.41;110911;1206;97581;-64
2023/09/14 09:23:20;;;;;;;10.80;4.20;;;;;;;17.39;82.21;101199.42;110680;1211;139050;-65
2023/09/14 09:25:52;;;;;;;11.90;4.80;;;;;;;17.49;82.09;101198.23;110759;1206;103745;-64
2023/09/14 09:28:18;;;;;;;13.40;5.30;;;;;;;17.56;81.70;101200.30;111011;1209;138991;-64
2023/09/14 09:30:44;;;;;;;9.90;4.20;;;;;;;17.56;81.43;101202.30;111149;1209;97954;-64
2023/09/14 09:33:10;;;;;;;9.10;4.60;;;;;;;17.55;81.28;101200.21;111091;1206;98020;-63
2023/09/14 09:35:35;;;;;;;11.20;4.60;;;;;;;17.56;81.22;101201.10;110928;1206;138793;-64
2023/09/14 09:38:12;;;;;;;8.20;4.10;;;;;;;17.59;80.53;101199.99;110976;1209;97715;-64
2023/09/14 09:40:42;;;;;;;11.60;4.10;;;;;;;17.56;79.96;101198.36;110816;1209;138910;-64
2023/09/14 09:43:09;;;;;;;12.10;3.90;;;;;;;17.58;79.56;101198.42;110939;1212;97559;-65
2023/09/14 09:45:40;;;;;;;9.00;3.90;;;;;;;17.61;79.62;101200.17;111170;1206;141928;-65
2023/09/14 09:48:08;;;;;;;10.20;3.80;;;;;;;17.71;79.46;101201.55;111006;1206;102741;-66
2023/09/14 09:50:33;;;;;;;7.60;4.50;;;;;;;17.79;79.51;101201.20;110753;1206;97642;-67
2023/09/14 09:52:59;;;;;;;9.10;4.40;;;;;;;17.95;79.31;101210.31;110789;1222;139940;-65
2023/09/14 09:55:27;;;;;;;10.90;4.10;;;;;;;18.07;78.93;101202.08;110810;1209;98239;-66
2023/09/14 09:57:59;;;;;;;5.20;3.50;;;;;;;18.20;78.88;101203.58;110787;1206;139267;-65
2023/09/14 10:00:36;;;;;;;6.60;3.60;;;;;;;18.32;78.53;101208.01;110728;1206;97651;-66
2023/09/14 10:03:03;;;;;;;6.40;3.60;;;;;;;18.40;78.03;101209.26;110841;1206;99126;-66
2023/09/14 10:05:39;;;;;;;13.00;3.50;;;;;;;18.42;77.37;101206.23;110542;1209;140228;-65
2023/09/14 10:08:12;;;;;;;10.30;3.90;;;;;;;18.50;77.11;101203.48;110855;1206;98026;-65
2023/09/14 10:10:52;;;;;;;11.50;4.70;;;;;;;18.68;76.89;101204.50;110660;1209;140496;-65
2023/09/14 10:13:24;;;;;;;12.00;3.90;;;;;;;18.75;76.41;101204.02;110810;1206;97604;-65
2023/09/14 10:15:56;;;;;;;14.80;4.00;;;;;;;18.83;76.36;101199.33;110789;1209;139410;-65
2023/09/14 10:18:24;;;;;;;11.80;4.40;;;;;;;18.92;76.20;101199.95;110756;1206;97686;-67
2023/09/14 10:20:51;;;;;;;6.40;3.20;;;;;;;18.89;75.18;101200.55;110807;1222;98121;-67
2023/09/14 10:23:19;;;;;;;14.40;3.70;;;;;;;18.84;74.87;101199.98;111125;1206;138455;-65
2023/09/14 10:25:46;;;;;;;12.30;4.70;;;;;;;18.89;74.76;101197.95;110944;1209;97684;-65
2023/09/14 10:28:14;;;;;;;18.40;5.30;;;;;;;19.02;74.58;101194.73;110872;1206;138636;-66
2023/09/14 10:30:39;;;;;;;18.30;4.50;;;;;;;19.06;74.13;101197.13;110742;1206;98067;-65
2023/09/14 10:33:07;;;;;;;21.70;5.20;;;;;;;19.07;74.02;101195.06;110928;1206;99720;-65
2023/09/14 10:35:33;;;;;;;14.60;4.10;;;;;;;19.04;73.69;101186.45;110678;1209;139033;-65
2023/09/14 10:37:59;;;;;;;12.10;4.20;;;;;;;19.05;73.61;101184.35;110745;1206;97578;-65
2023/09/14 10:40:27;;;;;;;11.10;3.60;;;;;;;19.05;72.99;101186.34;110553;1209;138782;-67
2023/09/14 10:42:52;;;;;;;11.80;4.10;;;;;;;19.06;72.55;101185.94;110778;1209;97658;-65
2023/09/14 10:45:19;;;;;;;7.30;3.50;;;;;;;19.11;72.64;101184.48;110630;1206;139168;-65
2023/09/14 10:47:50;;;;;;;25.20;5.10;;;;;;;19.16;71.16;101191.38;110835;1206;97749;-65
2023/09/14 10:50:19;;;;;;;15.00;3.80;;;;;;;19.13;70.09;101189.41;111043;1208;97481;-65
2023/09/14 10:52:44;;;;;;;11.50;3.80;;;;;;;19.17;69.84;101188.98;110630;1206;139103;-65
2023/09/14 10:55:11;;;;;;;11.50;3.90;;;;;;;19.23;70.09;101188.73;110695;1209;98666;-65
2023/09/14 10:57:40;;;;;;;13.50;4.10;;;;;;;19.34;70.20;101187.19;110798;1206;138349;-65
2023/09/14 11:00:07;;;;;;;18.80;4.00;;;;;;;19.38;69.71;101186.92;111227;1209;97701;-65
2023/09/14 11:02:45;;;;;;;12.50;3.80;;;;;;;19.42;69.74;101186.45;111271;1209;97603;-65
2023/09/14 11:05:14;;;;;;;9.50;3.40;;;;;;;19.60;69.83;101187.19;110997;1206;138086;-65